Time;durP1;ratioP1;P1;durP2;ratioP2;P2;SDS_P1;SDS_P2;PMS_P1;PMS_P2;Temp;Humidity;BMP_temperature;BMP_pressure;BME280_temperature;BME280_humidity;BME280_pressure;Samples;Min_cycle;Max_cycle;Signal;HPM_P1;HPM_P2
2020/12/07 00:00:14;;;;;;;19.80;7.82;;;6.60;69.50;;;;;;6231740;28;20038;-72
2020/12/07 00:03:15;;;;;;;16.50;8.07;;;6.60;69.40;;;;;;6229409;28;20181;-72
2020/12/07 00:06:20;;;;;;;14.48;7.13;;;6.60;69.50;;;;;;6232742;28;20112;-72
2020/12/07 00:09:21;;;;;;;19.13;7.97;;;6.60;69.40;;;;;;6229149;28;20034;-72
2020/12/07 00:12:26;;;;;;;19.75;7.32;;;6.60;69.30;;;;;;6230955;28;20169;-72
2020/12/07 00:15:27;;;;;;;21.23;7.97;;;6.60;69.40;;;;;;6231126;28;20038;-72
2020/12/07 00:18:27;;;;;;;14.77;7.40;;;6.60;69.40;;;;;;6233694;28;20034;-72
2020/12/07 00:21:29;;;;;;;20.35;7.78;;;6.60;69.50;;;;;;6229979;28;20038;-71
2020/12/07 00:24:30;;;;;;;15.73;7.10;;;6.60;69.40;;;;;;6231935;28;20057;-73
2020/12/07 00:27:33;;;;;;;13.40;6.85;;;6.70;69.40;;;;;;6231396;28;20040;-71
2020/12/07 00:30:58;;;;;;;12.77;6.35;;;6.70;69.40;;;;;;6216053;28;20050;-71
2020/12/07 00:34:24;;;;;;;11.90;6.13;;;6.80;69.20;;;;;;6203727;28;21490;-72
2020/12/07 00:37:50;;;;;;;11.10;5.95;;;6.70;69.00;;;;;;6200817;28;20045;-72
2020/12/07 00:41:23;;;;;;;12.18;6.28;;;6.80;69.00;;;;;;6200146;28;20038;-72
2020/12/07 00:44:49;;;;;;;16.63;7.60;;;6.70;69.10;;;;;;6228607;28;20042;-71
2020/12/07 00:47:51;;;;;;;16.60;7.00;;;6.70;69.10;;;;;;6229171;28;20072;-72
2020/12/07 00:50:52;;;;;;;11.93;5.10;;;6.70;69.20;;;;;;6229401;28;20471;-72
2020/12/07 00:53:53;;;;;;;10.85;5.97;;;6.80;69.20;;;;;;6230034;28;20403;-72
2020/12/07 00:56:59;;;;;;;11.32;5.50;;;6.80;69.00;;;;;;6210986;28;20022;-72
2020/12/07 01:00:06;;;;;;;12.05;5.90;;;6.80;69.00;;;;;;6246944;28;20048;-72
2020/12/07 01:03:09;;;;;;;12.15;4.95;;;6.80;69.00;;;;;;6252914;28;20170;-72
2020/12/07 01:06:36;;;;;;;11.98;6.07;;;6.90;69.10;;;;;;6246284;28;20033;-72
2020/12/07 01:09:39;;;;;;;18.17;8.02;;;6.90;69.00;;;;;;6249500;28;20041;-72
2020/12/07 01:12:41;;;;;;;13.32;6.18;;;6.90;68.90;;;;;;6248527;28;20041;-71
2020/12/07 01:15:44;;;;;;;16.23;7.43;;;6.90;68.70;;;;;;6254723;28;20037;-71
2020/12/07 01:18:46;;;;;;;16.85;6.60;;;6.90;68.70;;;;;;6225639;28;20474;-71
2020/12/07 01:21:47;;;;;;;15.68;7.07;;;6.90;68.80;;;;;;6216667;28;20525;-72
2020/12/07 01:24:49;;;;;;;14.82;6.45;;;6.90;68.90;;;;;;6212766;28;20048;-72
2020/12/07 01:27:50;;;;;;;16.20;7.68;;;6.90;69.00;;;;;;6242405;28;20103;-71
2020/12/07 01:30:56;;;;;;;16.10;6.80;;;6.80;69.10;;;;;;6224067;28;20110;-74
2020/12/07 01:33:57;;;;;;;18.13;7.40;;;6.80;69.10;;;;;;6233945;28;20217;-72
2020/12/07 01:36:58;;;;;;;15.05;7.13;;;6.80;69.20;;;;;;6247987;28;20126;-73
2020/12/07 01:40:03;;;;;;;14.30;6.07;;;6.80;69.20;;;;;;6240196;28;20112;-72
2020/12/07 01:43:05;;;;;;;12.30;5.72;;;6.80;69.30;;;;;;6249675;28;20087;-71
2020/12/07 01:46:08;;;;;;;11.88;6.18;;;6.80;69.20;;;;;;6250631;28;20068;-71
2020/12/07 01:49:09;;;;;;;15.80;6.20;;;6.80;69.20;;;;;;6248913;28;20136;-71
2020/12/07 01:52:11;;;;;;;13.38;6.10;;;6.90;69.30;;;;;;6254206;28;20363;-71
2020/12/07 01:55:12;;;;;;;15.02;6.57;;;6.80;69.30;;;;;;6256043;28;20044;-74
2020/12/07 01:58:22;;;;;;;12.25;5.93;;;6.80;69.30;;;;;;6255466;28;20036;-72
2020/12/07 02:01:26;;;;;;;11.32;5.72;;;6.80;69.30;;;;;;6226493;28;20355;-71
2020/12/07 02:04:27;;;;;;;14.63;7.25;;;6.90;69.40;;;;;;6228501;28;20029;-71
2020/12/07 02:07:28;;;;;;;12.35;5.68;;;6.90;69.40;;;;;;6213947;28;20467;-71
2020/12/07 02:10:31;;;;;;;13.57;6.50;;;6.90;69.30;;;;;;6209976;28;20033;-71
2020/12/07 02:13:32;;;;;;;9.40;5.57;;;6.90;69.20;;;;;;6217526;28;20128;-71
2020/12/07 02:16:33;;;;;;;15.77;6.75;;;6.80;69.20;;;;;;6226505;28;20034;-71
2020/12/07 02:19:36;;;;;;;15.95;7.60;;;6.90;69.40;;;;;;6229599;28;20103;-72
2020/12/07 02:22:37;;;;;;;11.93;6.00;;;6.90;69.30;;;;;;6215690;28;20026;-72
2020/12/07 02:25:48;;;;;;;13.35;6.10;;;7.00;69.30;;;;;;6227529;28;20045;-72
2020/12/07 02:28:51;;;;;;;13.00;6.07;;;7.00;69.20;;;;;;6228698;28;20065;-72
2020/12/07 02:32:16;;;;;;;10.13;5.72;;;7.00;69.20;;;;;;6234986;28;20095;-72
2020/12/07 02:35:35;;;;;;;11.32;5.07;;;7.00;69.20;;;;;;6255521;28;20045;-73
2020/12/07 02:38:37;;;;;;;7.90;5.03;;;7.00;69.20;;;;;;6254558;28;20033;-73
2020/12/07 02:41:38;;;;;;;16.05;6.70;;;6.90;69.20;;;;;;6252055;28;20037;-73
2020/12/07 02:44:39;;;;;;;8.88;5.28;;;6.90;69.20;;;;;;6254213;28;20044;-71
2020/12/07 02:47:48;;;;;;;16.02;6.38;;;6.90;69.30;;;;;;6254460;28;20048;-71
2020/12/07 02:50:50;;;;;;;7.75;4.85;;;6.90;69.30;;;;;;6250899;28;20409;-72
2020/12/07 02:53:52;;;;;;;18.05;6.85;;;6.90;69.50;;;;;;6232357;28;20451;-72
2020/12/07 02:56:54;;;;;;;15.13;7.00;;;6.90;69.50;;;;;;6232290;28;20033;-71
2020/12/07 02:59:57;;;;;;;18.58;6.90;;;7.00;69.60;;;;;;6230187;28;20053;-71
2020/12/07 03:02:59;;;;;;;10.75;5.68;;;7.00;69.40;;;;;;6232547;28;20102;-72
2020/12/07 03:06:04;;;;;;;16.25;6.47;;;7.00;69.30;;;;;;6214841;28;20034;-72
2020/12/07 03:09:06;;;;;;;13.30;5.53;;;6.90;69.40;;;;;;6220444;28;20049;-72
2020/12/07 03:12:08;;;;;;;10.15;5.47;;;7.00;69.40;;;;;;6238264;28;20041;-72
2020/12/07 03:15:10;;;;;;;15.88;6.45;;;7.00;69.40;;;;;;6255837;28;20029;-72
2020/12/07 03:18:15;;;;;;;14.45;5.70;;;7.00;69.40;;;;;;6253972;28;20032;-72
2020/12/07 03:21:26;;;;;;;9.38;5.72;;;7.00;69.50;;;;;;6242404;28;20057;-73
2020/12/07 03:24:34;;;;;;;11.43;6.00;;;7.00;69.30;;;;;;6225765;28;20022;-72
2020/12/07 03:27:39;;;;;;;10.85;4.95;;;7.00;69.30;;;;;;6223910;28;20184;-72
2020/12/07 03:30:41;;;;;;;7.07;3.78;;;7.00;69.40;;;;;;6223021;28;20025;-72
2020/12/07 03:33:42;;;;;;;20.52;5.60;;;7.10;69.40;;;;;;6229074;28;20057;-72
2020/12/07 03:36:47;;;;;;;9.38;4.20;;;7.00;69.30;;;;;;6250373;28;20639;-72
2020/12/07 03:39:48;;;;;;;12.35;5.63;;;7.10;69.50;;;;;;6242571;28;20039;-72
2020/12/07 03:42:49;;;;;;;9.98;5.18;;;7.10;69.40;;;;;;6252348;28;20041;-72
2020/12/07 03:45:51;;;;;;;17.52;5.72;;;7.10;69.40;;;;;;6243068;28;20033;-70
2020/12/07 03:48:52;;;;;;;8.20;4.40;;;7.10;70.10;;;;;;6254243;28;20037;-71
2020/12/07 03:51:53;;;;;;;11.40;5.20;;;7.10;69.30;;;;;;6251508;28;20041;-72
2020/12/07 03:54:55;;;;;;;9.80;4.68;;;7.10;69.30;;;;;;6235381;28;20379;-72
2020/12/07 03:57:56;;;;;;;7.47;3.78;;;7.20;69.30;;;;;;6230133;28;20321;-72
2020/12/07 04:00:59;;;;;;;8.90;5.00;;;7.20;69.20;;;;;;6245689;28;20581;-72
2020/12/07 04:04:04;;;;;;;12.65;5.13;;;7.30;69.10;;;;;;6255827;28;20041;-73
2020/12/07 04:07:06;;;;;;;9.63;4.97;;;7.40;69.10;;;;;;6234741;28;20029;-72
2020/12/07 04:10:07;;;;;;;17.35;6.88;;;7.40;68.90;;;;;;6244732;28;20444;-73
2020/12/07 04:13:08;;;;;;;12.60;5.85;;;7.50;68.80;;;;;;6253387;28;20037;-71
2020/12/07 04:16:09;;;;;;;8.32;4.90;;;7.50;68.70;;;;;;6259043;28;20030;-71
2020/12/07 04:19:10;;;;;;;9.80;5.28;;;7.50;68.60;;;;;;6242216;28;20028;-73
2020/12/07 04:22:10;;;;;;;14.75;6.65;;;7.50;68.40;;;;;;6255673;28;20124;-73
2020/12/07 04:25:11;;;;;;;12.52;6.80;;;7.50;68.30;;;;;;6254032;28;20107;-73
2020/12/07 04:28:12;;;;;;;17.27;6.30;;;7.50;68.40;;;;;;6252546;28;20052;-72
2020/12/07 04:31:13;;;;;;;11.77;6.05;;;7.50;68.40;;;;;;6248079;28;20402;-72
2020/12/07 04:34:14;;;;;;;9.52;5.25;;;7.60;68.40;;;;;;6256992;28;20025;-72
2020/12/07 04:37:15;;;;;;;12.30;6.68;;;7.60;68.20;;;;;;6248423;28;20106;-72
2020/12/07 04:40:16;;;;;;;11.68;6.20;;;7.50;68.20;;;;;;6248808;28;20045;-73
2020/12/07 04:43:18;;;;;;;14.82;6.38;;;7.60;68.30;;;;;;6239175;28;20033;-72
2020/12/07 04:46:19;;;;;;;12.55;6.43;;;7.60;68.20;;;;;;6254717;28;20158;-72
2020/12/07 04:49:21;;;;;;;12.43;6.15;;;7.60;68.10;;;;;;6239743;28;20030;-72
2020/12/07 04:52:22;;;;;;;13.52;5.55;;;7.60;68.10;;;;;;6211483;28;20046;-72
2020/12/07 04:55:24;;;;;;;12.85;5.25;;;7.60;68.10;;;;;;6249363;28;20050;-72
2020/12/07 04:58:27;;;;;;;10.25;5.50;;;7.60;68.00;;;;;;6237062;28;20109;-73
2020/12/07 05:01:28;;;;;;;9.57;4.68;;;7.60;68.10;;;;;;6238940;28;20029;-72
2020/12/07 05:04:29;;;;;;;13.38;6.53;;;7.70;68.00;;;;;;6256544;28;20049;-72
2020/12/07 05:07:34;;;;;;;11.38;6.18;;;7.70;68.00;;;;;;6239013;28;20026;-72
2020/12/07 05:10:42;;;;;;;13.40;5.70;;;7.70;67.90;;;;;;6241530;28;20030;-71
2020/12/07 05:13:59;;;;;;;14.03;6.83;;;7.70;67.80;;;;;;6253079;28;20471;-71
2020/12/07 05:17:00;;;;;;;16.33;6.68;;;7.80;67.70;;;;;;6233378;28;20045;-73
2020/12/07 05:20:03;;;;;;;14.05;6.68;;;7.70;68.20;;;;;;6254069;28;20045;-73
2020/12/07 05:23:04;;;;;;;16.00;7.35;;;7.70;67.30;;;;;;6233925;28;20037;-71
2020/12/07 05:26:09;;;;;;;15.02;7.15;;;7.70;67.40;;;;;;6229861;28;20029;-71
2020/12/07 05:29:18;;;;;;;17.15;6.90;;;7.70;67.60;;;;;;6242759;28;20080;-72
2020/12/07 05:32:20;;;;;;;14.00;7.72;;;7.70;67.70;;;;;;6250120;28;20055;-72
2020/12/07 05:35:21;;;;;;;17.23;7.88;;;7.70;67.60;;;;;;6236682;28;20033;-72
2020/12/07 05:38:31;;;;;;;15.65;7.57;;;7.80;67.50;;;;;;6253179;28;20423;-72
2020/12/07 05:41:33;;;;;;;15.40;7.22;;;7.70;67.30;;;;;;6253107;28;20467;-72
2020/12/07 05:44:35;;;;;;;13.13;6.10;;;7.70;67.30;;;;;;6242252;28;20068;-72
2020/12/07 05:47:40;;;;;;;17.08;6.03;;;7.70;67.30;;;;;;6252392;28;20041;-72
2020/12/07 05:50:43;;;;;;;11.20;5.75;;;7.70;67.40;;;;;;6241098;28;20038;-70
2020/12/07 05:53:45;;;;;;;10.57;6.05;;;7.70;67.40;;;;;;6228810;28;20046;-70
2020/12/07 05:56:48;;;;;;;15.80;6.90;;;7.70;67.50;;;;;;6229712;28;20092;-70
2020/12/07 05:59:54;;;;;;;17.50;7.20;;;7.70;67.70;;;;;;6228069;28;20112;-70
2020/12/07 06:07:21;;;;;;;13.15;6.05;;;7.70;67.90;;;;;;6249894;28;20124;-72
2020/12/07 06:10:27;;;;;;;12.73;6.40;;;7.70;67.90;;;;;;6241095;28;20057;-72
2020/12/07 06:13:30;;;;;;;16.95;7.18;;;7.60;67.80;;;;;;6230676;28;20459;-72
2020/12/07 06:16:37;;;;;;;13.68;7.22;;;7.60;67.90;;;;;;6246742;28;20072;-70
2020/12/07 06:19:39;;;;;;;13.55;7.40;;;7.60;68.00;;;;;;6240921;28;20033;-77
2020/12/07 06:22:40;;;;;;;17.13;7.25;;;7.60;68.00;;;;;;6252943;28;20315;-69
2020/12/07 06:25:43;;;;;;;19.10;7.65;;;7.60;68.00;;;;;;6248166;28;20094;-72
2020/12/07 06:28:45;;;;;;;25.23;8.80;;;7.70;68.10;;;;;;6249672;28;20069;-72
2020/12/07 06:31:46;;;;;;;18.27;8.38;;;7.70;68.00;;;;;;6241390;28;20044;-71
2020/12/07 06:34:57;;;;;;;19.10;8.20;;;7.70;67.90;;;;;;6253598;28;20470;-71
2020/12/07 06:38:02;;;;;;;23.40;8.60;;;7.70;67.80;;;;;;6260224;28;20478;-72
2020/12/07 06:41:03;;;;;;;24.90;9.43;;;7.70;67.80;;;;;;6254873;28;20037;-72
2020/12/07 06:44:17;;;;;;;24.63;9.73;;;7.70;67.80;;;;;;6243622;28;20552;-71
2020/12/07 06:47:25;;;;;;;24.10;10.40;;;7.70;67.80;;;;;;6260857;28;20120;-71
2020/12/07 06:50:29;;;;;;;;;;;7.70;67.80;;;;;;6250482;28;20042;-71
2020/12/07 06:56:33;;;;;;;20.50;9.02;;;7.80;67.60;;;;;;6251060;28;20099;-73
2020/12/07 06:59:34;;;;;;;19.17;9.07;;;7.80;67.50;;;;;;6256995;28;20044;-72
2020/12/07 07:02:49;;;;;;;19.42;8.45;;;7.70;67.60;;;;;;6250857;28;20037;-72
2020/12/07 07:05:50;;;;;;;23.52;10.02;;;7.70;67.60;;;;;;6216597;28;20052;-72
2020/12/07 07:08:53;;;;;;;20.75;8.88;;;7.80;67.60;;;;;;6219168;28;20117;-69
2020/12/07 07:11:55;;;;;;;19.95;9.27;;;7.80;67.50;;;;;;6253308;28;20059;-70
2020/12/07 07:14:58;;;;;;;25.60;10.13;;;7.80;67.40;;;;;;6252673;28;20037;-75
2020/12/07 07:18:00;;;;;;;31.08;11.70;;;7.80;67.30;;;;;;6230580;28;20042;-73
2020/12/07 07:21:03;;;;;;;27.95;10.45;;;7.70;67.20;;;;;;6248410;28;20072;-77
2020/12/07 07:24:03;;;;;;;27.60;10.82;;;7.70;67.20;;;;;;6253082;28;20033;-72
2020/12/07 07:30:26;;;;;;;22.77;9.85;;;7.60;67.30;;;;;;6228575;28;20550;-74
2020/12/07 07:33:28;;;;;;;25.55;10.52;;;7.60;67.50;;;;;;6227950;28;20347;-73
2020/12/07 07:36:29;;;;;;;22.52;9.68;;;7.60;67.50;;;;;;6229179;28;20437;-73
2020/12/07 07:39:30;;;;;;;28.45;10.82;;;7.60;67.60;;;;;;6226317;28;20077;-73
2020/12/07 07:42:35;;;;;;;31.52;10.25;;;7.60;67.70;;;;;;6229906;28;20050;-74
2020/12/07 07:45:38;;;;;;;30.10;10.25;;;7.70;67.80;;;;;;6212700;28;20057;-73
2020/12/07 07:49:19;;;;;;;26.52;11.13;;;7.70;67.70;;;;;;6228189;28;20148;-73
2020/12/07 08:15:44;;;;;;;19.50;9.18;;;8.10;67.10;;;;;;6256194;28;20033;-72
2020/12/07 08:18:46;;;;;;;23.13;10.07;;;8.20;67.10;;;;;;6245468;28;20454;-73
2020/12/07 08:21:47;;;;;;;21.75;10.48;;;8.20;66.90;;;;;;6254444;28;20128;-73
2020/12/07 08:25:04;;;;;;;21.42;10.45;;;8.20;66.80;;;;;;6225122;28;20038;-73
2020/12/07 08:28:26;;;;;;;25.23;10.60;;;8.30;66.90;;;;;;6255120;28;20041;-73
2020/12/07 08:31:35;;;;;;;20.92;9.77;;;8.30;66.80;;;;;;6252303;28;20045;-73
2020/12/07 08:34:36;;;;;;;20.88;9.23;;;8.40;66.80;;;;;;6250718;28;20468;-72
2020/12/07 08:37:46;;;;;;;21.67;9.57;;;8.40;66.40;;;;;;6251966;28;20033;-73
2020/12/07 08:40:47;;;;;;;24.38;10.30;;;8.40;66.10;;;;;;6235018;28;20041;-73
2020/12/07 08:43:50;;;;;;;29.17;9.77;;;8.50;65.80;;;;;;6251628;28;20053;-73
2020/12/07 08:46:51;;;;;;;24.30;11.40;;;8.50;65.80;;;;;;6244926;28;20477;-73
2020/12/07 08:49:53;;;;;;;21.52;10.52;;;8.50;65.70;;;;;;6246157;28;20386;-73
2020/12/07 08:52:54;;;;;;;20.27;9.98;;;8.50;65.80;;;;;;6227827;28;20045;-74
2020/12/07 08:55:55;;;;;;;24.55;9.90;;;8.60;65.70;;;;;;6250781;28;20055;-75
2020/12/07 08:58:56;;;;;;;23.85;9.88;;;8.60;65.50;;;;;;6249665;28;20037;-75
2020/12/07 09:01:57;;;;;;;21.77;8.95;;;8.70;65.20;;;;;;6251895;28;20034;-74
2020/12/07 09:04:58;;;;;;;21.45;9.95;;;8.70;65.00;;;;;;6252819;28;20465;-74
2020/12/07 09:07:59;;;;;;;24.55;9.75;;;8.70;64.90;;;;;;6232082;28;20466;-74
2020/12/07 09:11:02;;;;;;;26.85;9.82;;;8.70;64.90;;;;;;6245208;28;20356;-75
2020/12/07 09:14:08;;;;;;;22.95;9.75;;;8.70;65.00;;;;;;6254005;28;20029;-75
2020/12/07 09:17:08;;;;;;;27.58;10.20;;;8.70;64.90;;;;;;6251121;28;20068;-73
2020/12/07 09:20:10;;;;;;;25.35;11.35;;;8.80;64.80;;;;;;6252096;28;20021;-76
2020/12/07 09:23:11;;;;;;;26.05;11.57;;;8.80;64.80;;;;;;6251473;28;20096;-74
2020/12/07 09:26:13;;;;;;;28.38;10.40;;;8.90;64.80;;;;;;6255123;28;20028;-74
2020/12/07 09:29:13;;;;;;;23.95;10.05;;;8.90;64.70;;;;;;6255915;28;20476;-74
2020/12/07 09:32:15;;;;;;;25.55;10.45;;;9.00;65.60;;;;;;6251008;28;20446;-75
2020/12/07 09:35:18;;;;;;;24.65;10.02;;;9.00;64.60;;;;;;6241195;28;20045;-75
2020/12/07 09:38:19;;;;;;;23.35;10.65;;;9.10;64.40;;;;;;6249039;28;20049;-74
2020/12/07 09:41:20;;;;;;;25.42;9.70;;;9.20;64.20;;;;;;6252196;28;20121;-75
2020/12/07 09:44:21;;;;;;;27.65;10.48;;;9.20;63.90;;;;;;6253086;28;20041;-75
2020/12/07 09:47:22;;;;;;;27.02;12.05;;;9.30;63.70;;;;;;6249451;28;20329;-75
2020/12/07 09:50:23;;;;;;;26.30;11.75;;;9.30;63.40;;;;;;6247729;28;20280;-75
2020/12/07 09:53:25;;;;;;;27.08;12.18;;;9.30;63.30;;;;;;6253677;28;20479;-74
2020/12/07 09:56:29;;;;;;;28.63;10.88;;;9.40;63.40;;;;;;6254109;28;20121;-74
2020/12/07 09:59:32;;;;;;;23.08;10.05;;;9.40;63.30;;;;;;6235823;28;20060;-75
2020/12/07 10:02:33;;;;;;;25.27;9.32;;;9.50;63.00;;;;;;6249124;28;20041;-74
2020/12/07 10:05:34;;;;;;;19.23;9.27;;;9.60;63.00;;;;;;6255519;28;20354;-75
2020/12/07 10:08:35;;;;;;;24.55;9.50;;;9.60;62.70;;;;;;6231634;28;20052;-74
2020/12/07 10:11:36;;;;;;;21.58;8.55;;;9.60;62.60;;;;;;6255050;28;20049;-75
2020/12/07 10:14:37;;;;;;;18.45;8.80;;;9.70;62.40;;;;;;6260317;28;20068;-73
2020/12/07 10:17:38;;;;;;;28.88;12.82;;;9.60;61.70;;;;;;6228176;28;20033;-75
2020/12/07 10:20:39;;;;;;;27.75;12.50;;;9.60;61.90;;;;;;6228592;28;20037;-76
2020/12/07 10:23:40;;;;;;;26.02;11.07;;;9.70;62.10;;;;;;6231637;28;20152;-74
2020/12/07 10:26:40;;;;;;;25.73;10.32;;;9.80;62.10;;;;;;6220885;28;20026;-74
2020/12/07 10:29:42;;;;;;;19.63;9.70;;;10.00;62.00;;;;;;6228456;28;20098;-74
2020/12/07 10:32:43;;;;;;;27.40;11.70;;;10.10;61.70;;;;;;6242670;28;20378;-75
2020/12/07 10:35:44;;;;;;;30.83;14.35;;;10.20;61.50;;;;;;6251161;28;20056;-75
2020/12/07 10:38:46;;;;;;;42.22;15.73;;;10.20;61.10;;;;;;6258140;28;20037;-74
2020/12/07 10:41:47;;;;;;;16.67;8.70;;;10.30;61.10;;;;;;6256298;28;20041;-75
2020/12/07 10:44:48;;;;;;;19.33;9.00;;;10.30;60.80;;;;;;6218770;28;20505;-74
2020/12/07 10:47:51;;;;;;;17.58;8.57;;;10.20;60.00;;;;;;6254894;28;20043;-75
2020/12/07 10:50:53;;;;;;;14.82;6.65;;;10.10;60.00;;;;;;6259690;28;20074;-75
2020/12/07 10:53:53;;;;;;;13.98;6.97;;;10.10;60.30;;;;;;6254250;28;20037;-75
2020/12/07 10:56:55;;;;;;;17.58;8.38;;;10.20;60.40;;;;;;6246794;28;20058;-74
2020/12/07 10:59:56;;;;;;;16.25;7.55;;;10.30;60.50;;;;;;6233410;28;20064;-75
2020/12/07 11:02:57;;;;;;;16.92;8.13;;;10.40;60.30;;;;;;6260165;28;20553;-75
2020/12/07 11:05:58;;;;;;;17.92;9.68;;;10.60;60.10;;;;;;6238358;28;20045;-74
2020/12/07 11:09:04;;;;;;;17.73;8.70;;;10.60;59.90;;;;;;6229246;28;20042;-74
2020/12/07 11:12:11;;;;;;;22.10;9.82;;;10.70;59.90;;;;;;6229202;28;20037;-75
2020/12/07 11:15:12;;;;;;;17.27;7.97;;;10.70;59.60;;;;;;6245082;28;20033;-75
2020/12/07 11:18:13;;;;;;;19.05;9.40;;;10.80;59.60;;;;;;6256534;28;20124;-75
2020/12/07 11:21:15;;;;;;;16.25;7.72;;;10.90;59.50;;;;;;6256669;28;20454;-74
2020/12/07 11:24:17;;;;;;;16.83;7.60;;;11.00;59.30;;;;;;6258255;28;20033;-74
2020/12/07 11:27:18;;;;;;;19.17;8.70;;;11.00;58.90;;;;;;6251976;28;20151;-75
2020/12/07 11:30:19;;;;;;;20.58;8.73;;;11.00;58.90;;;;;;6225316;28;20363;-73
2020/12/07 11:33:22;;;;;;;18.50;9.27;;;11.00;58.80;;;;;;6255079;28;20041;-73
2020/12/07 11:36:23;;;;;;;15.88;8.60;;;11.00;58.80;;;;;;6257790;28;20084;-74
2020/12/07 11:42:52;;;;;;;29.92;10.32;;;10.80;58.60;;;;;;6247054;28;20090;-72
2020/12/07 11:45:55;;;;;;;18.33;7.57;;;10.70;58.60;;;;;;6223174;28;20045;-74
2020/12/07 11:48:57;;;;;;;27.65;13.40;;;10.70;58.80;;;;;;6247103;28;20034;-74
2020/12/07 11:52:05;;;;;;;20.15;10.02;;;10.70;58.80;;;;;;6252580;28;20052;-75
2020/12/07 11:55:05;;;;;;;14.35;7.97;;;10.80;58.60;;;;;;6240969;28;20033;-74
2020/12/07 11:58:06;;;;;;;20.85;8.65;;;10.90;58.50;;;;;;6253624;28;20046;-76
2020/12/07 12:01:07;;;;;;;17.45;8.85;;;10.90;58.30;;;;;;6252429;28;20099;-75
2020/12/07 12:04:08;;;;;;;21.42;10.23;;;10.90;58.40;;;;;;6252466;28;20049;-75
2020/12/07 12:07:11;;;;;;;19.73;8.98;;;10.80;58.30;;;;;;6236706;28;20088;-74
2020/12/07 12:10:12;;;;;;;26.40;11.10;;;10.80;58.50;;;;;;6253514;28;21511;-75
2020/12/07 12:13:12;;;;;;;24.52;11.23;;;10.70;58.50;;;;;;6231955;28;20120;-76
2020/12/07 12:16:14;;;;;;;24.83;11.07;;;10.70;58.70;;;;;;6234726;28;20051;-76
2020/12/07 12:19:14;;;;;;;25.00;10.38;;;10.60;58.90;;;;;;6227524;28;20125;-75
2020/12/07 12:22:15;;;;;;;30.90;12.02;;;10.60;59.00;;;;;;6231426;28;20065;-74
2020/12/07 12:25:16;;;;;;;31.50;12.27;;;10.60;59.10;;;;;;6229473;28;20045;-75
2020/12/07 12:28:17;;;;;;;22.98;9.95;;;10.50;59.30;;;;;;6223504;28;20126;-75
2020/12/07 12:31:19;;;;;;;24.58;10.10;;;10.50;59.30;;;;;;6227906;28;20124;-75
2020/12/07 12:34:20;;;;;;;24.23;10.77;;;10.50;59.40;;;;;;6223737;28;20414;-75
2020/12/07 12:37:21;;;;;;;26.27;11.35;;;10.50;59.40;;;;;;6226828;28;20041;-74
2020/12/07 12:40:22;;;;;;;23.52;10.57;;;10.50;59.60;;;;;;6216717;28;20026;-75
2020/12/07 12:43:23;;;;;;;28.40;11.98;;;10.60;59.70;;;;;;6230646;28;20042;-76
2020/12/07 12:46:24;;;;;;;26.05;12.30;;;10.40;59.80;;;;;;6228747;28;20441;-75
2020/12/07 12:49:26;;;;;;;28.25;11.48;;;10.40;60.10;;;;;;6228754;28;20071;-75
2020/12/07 12:52:27;;;;;;;25.90;11.60;;;10.30;60.30;;;;;;6229464;28;20052;-75
2020/12/07 12:55:29;;;;;;;24.65;11.02;;;10.30;60.50;;;;;;6226500;28;20419;-75
2020/12/07 12:58:29;;;;;;;25.05;12.23;;;10.30;60.70;;;;;;6230010;28;20030;-75
2020/12/07 13:01:35;;;;;;;26.52;10.73;;;10.30;60.70;;;;;;6230169;28;20068;-76
2020/12/07 13:04:36;;;;;;;31.23;12.35;;;10.30;60.90;;;;;;6236259;28;20038;-76
2020/12/07 13:07:37;;;;;;;27.05;11.73;;;10.30;61.00;;;;;;6225707;28;20056;-76
2020/12/07 13:10:38;;;;;;;35.30;13.15;;;10.20;61.10;;;;;;6209646;28;20044;-75
2020/12/07 13:13:39;;;;;;;24.42;11.40;;;10.30;61.20;;;;;;6219188;28;20045;-75
2020/12/07 13:17:02;;;;;;;26.45;9.93;;;10.20;61.20;;;;;;6247242;28;20617;-76
2020/12/07 13:20:07;;;;;;;20.65;8.98;;;10.20;61.30;;;;;;6255350;28;20111;-76
2020/12/07 13:26:16;;;;;;;23.13;10.43;;;10.20;61.20;;;;;;6225149;28;20037;-73
2020/12/07 13:29:43;;;;;;;23.92;10.57;;;10.20;61.10;;;;;;6250009;28;20025;-73
2020/12/07 13:32:44;;;;;;;18.25;8.52;;;10.20;61.10;;;;;;6254583;28;20036;-75
2020/12/07 13:35:45;;;;;;;19.65;8.38;;;10.20;61.00;;;;;;6244923;28;20403;-74
2020/12/07 13:38:47;;;;;;;16.23;8.23;;;10.30;60.90;;;;;;6250900;28;20037;-74
2020/12/07 13:41:49;;;;;;;13.23;7.03;;;10.40;60.70;;;;;;6254590;28;20072;-74
2020/12/07 13:44:51;;;;;;;18.83;9.32;;;10.30;60.20;;;;;;6255540;28;20314;-74
2020/12/07 13:47:52;;;;;;;19.75;9.68;;;10.30;60.20;;;;;;6252041;28;20048;-75
2020/12/07 13:50:53;;;;;;;23.35;9.93;;;10.30;60.30;;;;;;6254861;28;20311;-74
2020/12/07 13:53:54;;;;;;;22.42;8.80;;;10.20;60.40;;;;;;6258570;28;20045;-74
2020/12/07 13:56:55;;;;;;;23.42;9.75;;;10.40;60.20;;;;;;6255954;28;20137;-75
2020/12/07 13:59:56;;;;;;;21.02;9.10;;;10.40;60.10;;;;;;6254391;28;20124;-75
2020/12/07 14:02:57;;;;;;;23.27;10.32;;;10.40;60.20;;;;;;6257201;28;20033;-74
2020/12/07 14:05:58;;;;;;;20.88;9.02;;;10.40;60.30;;;;;;6251752;28;20041;-75
2020/12/07 14:08:59;;;;;;;23.75;10.20;;;10.50;60.60;;;;;;6256903;28;20037;-74
2020/12/07 14:12:01;;;;;;;23.25;8.38;;;10.50;60.60;;;;;;6240220;28;20092;-75
2020/12/07 14:15:04;;;;;;;19.15;8.27;;;10.50;60.40;;;;;;6256303;28;20029;-74
2020/12/07 14:18:11;;;;;;;18.38;7.65;;;10.60;60.10;;;;;;6240708;28;20118;-75
2020/12/07 14:21:19;;;;;;;17.20;7.93;;;10.60;59.70;;;;;;6248692;28;20045;-74
2020/12/07 14:40:32;;;;;;;17.52;9.63;;;10.30;60.30;;;;;;6239474;28;20051;-78
2020/12/07 14:43:33;;;;;;;26.75;11.40;;;10.30;60.70;;;;;;6253859;28;20391;-77
2020/12/07 14:46:34;;;;;;;18.45;9.18;;;10.20;60.90;;;;;;6239686;28;20045;-75
2020/12/07 14:49:35;;;;;;;22.20;8.20;;;10.20;61.10;;;;;;6252129;28;20034;-75
2020/12/07 14:52:36;;;;;;;23.90;9.55;;;10.20;61.30;;;;;;6259940;28;20385;-75
2020/12/07 14:55:48;;;;;;;21.42;9.15;;;10.20;61.40;;;;;;6258430;28;20098;-76
2020/12/07 15:05:24;;;;;;;22.20;9.15;;;10.10;61.60;;;;;;6247364;28;20431;-75
2020/12/07 15:08:53;;;;;;;21.00;8.77;;;10.10;61.60;;;;;;6256241;28;20038;-74
2020/12/07 15:11:57;;;;;;;21.73;9.52;;;10.10;61.50;;;;;;6253992;28;20041;-74
2020/12/07 15:14:58;;;;;;;25.02;9.18;;;10.00;61.60;;;;;;6247376;28;20056;-75
2020/12/07 15:17:59;;;;;;;16.90;8.35;;;10.00;61.80;;;;;;6259385;28;20049;-74
2020/12/07 15:21:00;;;;;;;19.30;8.93;;;10.00;61.90;;;;;;6245326;28;20072;-75
2020/12/07 15:24:01;;;;;;;23.95;9.82;;;10.00;61.90;;;;;;6252370;28;20107;-75
2020/12/07 15:27:02;;;;;;;18.85;9.25;;;10.00;62.00;;;;;;6256075;28;20466;-75
2020/12/07 15:30:03;;;;;;;21.67;8.60;;;10.00;62.10;;;;;;6241586;28;20068;-75
2020/12/07 15:33:04;;;;;;;20.05;8.75;;;9.90;61.90;;;;;;6255256;28;20041;-74
2020/12/07 15:36:07;;;;;;;15.00;7.57;;;9.90;62.00;;;;;;6228638;28;20137;-76
2020/12/07 15:39:09;;;;;;;20.65;6.90;;;9.90;62.30;;;;;;6261191;28;20033;-75
2020/12/07 15:42:10;;;;;;;17.85;7.28;;;9.80;62.10;;;;;;6244493;28;20123;-76
2020/12/07 15:45:12;;;;;;;16.90;6.78;;;9.80;61.70;;;;;;6255795;28;20048;-76
2020/12/07 15:48:14;;;;;;;15.40;5.80;;;9.80;61.10;;;;;;6256838;28;20485;-76
2020/12/07 15:51:17;;;;;;;13.23;6.43;;;9.90;60.50;;;;;;6256384;28;20132;-76
2020/12/07 15:54:19;;;;;;;10.57;5.40;;;9.90;59.60;;;;;;6242682;28;20454;-75
2020/12/07 15:57:20;;;;;;;12.68;6.75;;;9.90;59.40;;;;;;6256430;28;20125;-74
2020/12/07 16:00:22;;;;;;;18.65;8.60;;;9.90;59.40;;;;;;6259708;28;20450;-76
2020/12/07 16:03:23;;;;;;;18.38;7.97;;;9.90;59.70;;;;;;6239736;28;20095;-76
2020/12/07 16:06:24;;;;;;;16.52;7.25;;;9.80;59.80;;;;;;6229034;28;20037;-76
2020/12/07 16:09:27;;;;;;;15.52;5.25;;;9.80;59.90;;;;;;6237235;28;20037;-75
2020/12/07 16:12:28;;;;;;;15.48;5.78;;;9.70;59.60;;;;;;6217346;28;20044;-76
2020/12/07 16:15:31;;;;;;;12.07;6.40;;;9.80;59.40;;;;;;6229234;28;20041;-74
2020/12/07 16:18:31;;;;;;;12.85;5.25;;;9.70;59.40;;;;;;6239544;28;20065;-74
2020/12/07 16:21:33;;;;;;;12.52;5.55;;;9.80;59.20;;;;;;6217821;28;20044;-74
2020/12/07 16:24:34;;;;;;;14.25;5.10;;;9.90;59.00;;;;;;6233757;28;20045;-75
2020/12/07 16:27:36;;;;;;;12.45;6.10;;;9.90;58.80;;;;;;6211960;28;20034;-75
2020/12/07 16:30:41;;;;;;;15.65;6.97;;;9.90;58.50;;;;;;6245104;28;20037;-75
2020/12/07 16:33:43;;;;;;;16.60;8.00;;;9.90;58.60;;;;;;6257114;28;20048;-76
2020/12/07 16:36:50;;;;;;;20.55;8.32;;;9.90;58.80;;;;;;6255611;28;20102;-76
2020/12/07 16:39:51;;;;;;;18.75;8.07;;;9.80;59.00;;;;;;6257214;28;20118;-74
2020/12/07 16:42:52;;;;;;;21.67;7.65;;;9.80;59.30;;;;;;6240025;28;20045;-78
2020/12/07 16:45:53;;;;;;;18.77;8.43;;;9.70;59.50;;;;;;6229643;28;20041;-75
2020/12/07 16:48:55;;;;;;;19.83;8.77;;;9.70;59.80;;;;;;6256024;28;20087;-76
2020/12/07 16:51:56;;;;;;;16.45;7.47;;;9.60;60.10;;;;;;6239133;28;20029;-76